Time;durP1;ratioP1;P1;durP2;ratioP2;P2;SDS_P1;SDS_P2;PMS_P1;PMS_P2;Temp;Humidity;BMP_temperature;BMP_pressure;BME280_temperature;BME280_humidity;BME280_pressure;Samples;Min_cycle;Max_cycle;Signal;HPM_P1;HPM_P2
2023/04/11 00:00:28;;;;;;;2.28;0.82;;;18.90;42.40;;;;;;2310345;55;20966;-73
2023/04/11 00:02:58;;;;;;;2.87;0.90;;;18.90;42.40;;;;;;2524553;54;20942;-70
2023/04/11 00:05:30;;;;;;;2.15;0.90;;;18.90;42.40;;;;;;2309034;55;20942;-71
2023/04/11 00:07:56;;;;;;;2.33;0.85;;;18.80;42.30;;;;;;2293396;55;21606;-71
2023/04/11 00:10:22;;;;;;;3.40;1.00;;;18.80;42.30;;;;;;2308854;55;21844;-71
2023/04/11 00:12:49;;;;;;;2.10;0.90;;;18.80;42.30;;;;;;2550136;54;20935;-70
2023/04/11 00:15:16;;;;;;;2.22;0.90;;;18.80;42.40;;;;;;2549240;54;21258;-70
2023/04/11 00:17:44;;;;;;;2.95;1.00;;;18.80;42.50;;;;;;2549740;54;21396;-70
2023/04/11 00:20:11;;;;;;;2.10;0.93;;;18.80;42.50;;;;;;2309696;55;21053;-72
2023/04/11 00:22:38;;;;;;;5.62;1.52;;;18.80;42.60;;;;;;2550134;54;20998;-72
2023/04/11 00:25:05;;;;;;;2.55;1.10;;;18.70;42.70;;;;;;2550175;54;21053;-71
2023/04/11 00:27:32;;;;;;;2.53;0.90;;;18.70;42.80;;;;;;2309562;55;21007;-72
2023/04/11 00:29:58;;;;;;;2.28;0.93;;;18.70;42.90;;;;;;2310551;55;20991;-70
2023/04/11 00:32:25;;;;;;;1.80;0.77;;;18.70;43.00;;;;;;2545139;54;20955;-70
2023/04/11 00:34:51;;;;;;;2.25;0.98;;;18.70;43.30;;;;;;2549638;54;21372;-73
2023/04/11 00:37:20;;;;;;;2.12;0.93;;;18.70;43.40;;;;;;2548409;54;20954;-70
2023/04/11 00:39:49;;;;;;;1.37;0.77;;;18.70;43.60;;;;;;2547390;54;21968;-72
2023/04/11 00:42:15;;;;;;;2.55;0.90;;;18.70;43.70;;;;;;2309887;55;21828;-70
2023/04/11 00:44:42;;;;;;;2.05;0.80;;;18.60;43.70;;;;;;2309759;55;20947;-72
2023/04/11 00:47:09;;;;;;;1.62;0.70;;;18.60;43.70;;;;;;2521834;54;20962;-72
2023/04/11 00:49:36;;;;;;;1.45;0.68;;;18.60;43.80;;;;;;2549076;54;20931;-72
2023/04/11 00:52:02;;;;;;;1.95;0.73;;;18.50;43.80;;;;;;2310400;55;20939;-72
2023/04/11 00:54:30;;;;;;;2.17;1.00;;;18.50;43.90;;;;;;2309213;55;21902;-70
2023/04/11 00:57:00;;;;;;;3.17;1.10;;;18.50;44.10;;;;;;2311058;55;20942;-71
2023/04/11 00:59:27;;;;;;;2.00;0.80;;;18.50;44.50;;;;;;2289865;56;21561;-70
2023/04/11 01:01:53;;;;;;;2.33;0.85;;;18.40;44.60;;;;;;2549655;54;20967;-71
2023/04/11 01:04:25;;;;;;;2.58;0.80;;;18.40;44.70;;;;;;2548527;54;20947;-72
2023/04/11 01:06:54;;;;;;;3.80;0.95;;;18.30;44.90;;;;;;2312084;55;21570;-71
2023/04/11 01:09:22;;;;;;;1.73;0.75;;;18.30;45.10;;;;;;2291219;55;20938;-71
2023/04/11 01:11:48;;;;;;;2.00;0.77;;;18.20;45.30;;;;;;2290047;55;21978;-71
2023/04/11 01:14:15;;;;;;;1.70;0.70;;;18.10;45.50;;;;;;2549059;54;21872;-69
2023/04/11 01:16:45;;;;;;;2.10;0.80;;;18.00;45.90;;;;;;2309390;55;20934;-72
2023/04/11 01:19:20;;;;;;;3.70;1.23;;;17.90;46.10;;;;;;2310235;55;20955;-74
2023/04/11 01:21:47;;;;;;;1.45;0.60;;;17.80;46.30;;;;;;2310050;55;21869;-73
2023/04/11 01:24:13;;;;;;;2.33;0.80;;;17.70;46.50;;;;;;2548820;54;20939;-70
2023/04/11 01:26:39;;;;;;;1.85;0.70;;;17.70;46.80;;;;;;2310021;55;21225;-70
2023/04/11 01:29:08;;;;;;;2.72;0.60;;;17.60;47.10;;;;;;2549704;54;20978;-71
2023/04/11 01:31:35;;;;;;;1.92;0.70;;;17.60;47.40;;;;;;2523142;54;21065;-69
2023/04/11 01:34:01;;;;;;;2.33;0.70;;;17.50;47.30;;;;;;2537490;54;21672;-69
2023/04/11 01:36:28;;;;;;;1.42;0.70;;;17.50;47.50;;;;;;2533469;54;20966;-73
2023/04/11 01:38:54;;;;;;;2.00;0.80;;;17.40;47.70;;;;;;2549118;54;20935;-70
2023/04/11 01:41:21;;;;;;;1.50;0.60;;;17.40;47.90;;;;;;2309251;55;20939;-70
2023/04/11 01:43:48;;;;;;;1.80;0.80;;;17.30;48.10;;;;;;2549681;54;20967;-72
2023/04/11 01:46:14;;;;;;;2.15;0.80;;;17.30;48.30;;;;;;2309730;55;21061;-70
2023/04/11 01:48:41;;;;;;;2.65;0.85;;;17.30;48.70;;;;;;2309548;55;20943;-69
2023/04/11 01:51:08;;;;;;;2.47;0.70;;;17.30;48.70;;;;;;2549590;54;21003;-70
2023/04/11 01:53:34;;;;;;;1.58;0.62;;;17.20;48.70;;;;;;2548716;54;20958;-70
2023/04/11 01:56:00;;;;;;;1.20;0.50;;;17.10;48.80;;;;;;2549460;54;21022;-69
2023/04/11 01:58:26;;;;;;;1.50;0.60;;;17.10;49.10;;;;;;2310302;55;20962;-73
2023/04/11 02:00:53;;;;;;;2.15;0.73;;;17.10;49.30;;;;;;2309912;55;20914;-71
2023/04/11 02:03:21;;;;;;;1.65;0.60;;;17.00;49.50;;;;;;2309499;55;21010;-69
2023/04/11 02:05:47;;;;;;;3.35;0.70;;;17.00;49.70;;;;;;2309453;55;21011;-69
2023/04/11 02:08:14;;;;;;;1.15;0.57;;;17.00;49.80;;;;;;2548308;54;21012;-72
2023/04/11 02:10:43;;;;;;;1.62;0.52;;;16.90;50.00;;;;;;2544143;54;21049;-70
2023/04/11 02:13:09;;;;;;;1.02;0.40;;;16.90;50.60;;;;;;2285393;55;20969;-69
2023/04/11 02:15:36;;;;;;;1.23;0.40;;;16.70;50.80;;;;;;2301908;55;21022;-73
2023/04/11 02:18:02;;;;;;;0.77;0.40;;;16.90;51.50;;;;;;2307212;55;20958;-69
2023/04/11 02:20:28;;;;;;;1.98;0.37;;;16.70;51.90;;;;;;2285896;55;20937;-70
2023/04/11 02:22:55;;;;;;;2.22;0.40;;;16.70;52.40;;;;;;2298975;55;20960;-69
2023/04/11 02:25:21;;;;;;;0.82;0.40;;;16.70;52.80;;;;;;2309406;55;21368;-72
2023/04/11 02:27:48;;;;;;;0.70;0.30;;;16.60;53.20;;;;;;2305307;55;20985;-72
2023/04/11 02:30:17;;;;;;;1.02;0.32;;;16.60;53.50;;;;;;2296385;55;21006;-71
2023/04/11 02:32:43;;;;;;;0.32;0.20;;;16.60;53.80;;;;;;2310943;55;21474;-74
2023/04/11 02:35:09;;;;;;;1.05;0.45;;;16.50;54.00;;;;;;2532942;54;20965;-69
2023/04/11 02:37:36;;;;;;;1.00;0.50;;;16.60;54.40;;;;;;2289280;55;20938;-73
2023/04/11 02:40:03;;;;;;;1.10;0.40;;;16.50;54.50;;;;;;2300443;55;20997;-69
2023/04/11 02:42:29;;;;;;;1.23;0.40;;;16.40;54.70;;;;;;2293217;55;20994;-70
2023/04/11 02:44:55;;;;;;;1.17;0.40;;;16.40;54.90;;;;;;2310284;55;21031;-68
2023/04/11 02:47:22;;;;;;;2.45;0.57;;;16.40;55.10;;;;;;2309409;55;21369;-69
2023/04/11 02:49:51;;;;;;;1.15;0.47;;;16.40;55.30;;;;;;2549551;54;20923;-71
2023/04/11 02:52:20;;;;;;;1.00;0.30;;;16.40;55.50;;;;;;2309882;55;21019;-71
2023/04/11 02:54:47;;;;;;;0.62;0.30;;;16.40;55.50;;;;;;2310328;55;20970;-69
2023/04/11 02:57:14;;;;;;;1.58;0.43;;;16.40;55.50;;;;;;2291807;55;20969;-70
2023/04/11 02:59:42;;;;;;;1.27;0.40;;;16.30;55.50;;;;;;2310423;55;20938;-67
2023/04/11 03:02:09;;;;;;;1.58;0.40;;;16.30;55.60;;;;;;2310183;55;20982;-70
2023/04/11 03:04:35;;;;;;;1.55;0.30;;;16.30;55.70;;;;;;2549012;54;21015;-68
2023/04/11 03:07:01;;;;;;;1.00;0.40;;;16.30;55.70;;;;;;2549628;54;21854;-69
2023/04/11 03:09:28;;;;;;;1.48;0.60;;;16.30;55.80;;;;;;2310010;55;21937;-70
2023/04/11 03:11:55;;;;;;;2.22;0.52;;;16.30;55.80;;;;;;2549664;54;21419;-69
2023/04/11 03:14:22;;;;;;;1.10;0.45;;;16.30;55.90;;;;;;2310099;55;20975;-69
2023/04/11 03:16:48;;;;;;;0.77;0.45;;;16.20;55.90;;;;;;2310292;55;21492;-70
2023/04/11 03:19:15;;;;;;;0.60;0.30;;;16.20;56.00;;;;;;2549242;54;20975;-69
2023/04/11 03:21:41;;;;;;;0.85;0.40;;;16.20;56.10;;;;;;2548784;54;20958;-69
2023/04/11 03:24:07;;;;;;;0.60;0.30;;;16.10;56.10;;;;;;2549456;54;20942;-70
2023/04/11 03:26:34;;;;;;;0.90;0.40;;;16.20;56.30;;;;;;2549066;54;21073;-69
2023/04/11 03:29:00;;;;;;;1.30;0.40;;;16.20;56.40;;;;;;2550057;54;20955;-69
2023/04/11 03:31:31;;;;;;;0.85;0.40;;;16.20;56.50;;;;;;2549253;54;20939;-70
2023/04/11 03:33:58;;;;;;;1.45;0.50;;;16.10;56.50;;;;;;2310597;55;21026;-69
2023/04/11 03:36:28;;;;;;;0.88;0.30;;;16.10;56.60;;;;;;2549445;54;21023;-69
2023/04/11 03:38:54;;;;;;;2.50;0.40;;;16.10;56.60;;;;;;2310303;55;20962;-69
2023/04/11 03:41:21;;;;;;;0.90;0.32;;;16.10;56.70;;;;;;2548528;54;21050;-68
2023/04/11 03:43:50;;;;;;;2.00;0.50;;;16.10;56.50;;;;;;2549500;54;20979;-69
2023/04/11 03:46:17;;;;;;;1.37;0.47;;;16.00;55.90;;;;;;2309655;55;21015;-69
2023/04/11 03:48:45;;;;;;;1.87;0.40;;;15.90;55.50;;;;;;2310067;55;21479;-69
2023/04/11 03:51:12;;;;;;;5.35;0.30;;;15.80;55.20;;;;;;2309933;55;20934;-69
2023/04/11 03:53:38;;;;;;;1.23;0.40;;;15.70;55.10;;;;;;2549243;54;20993;-70
2023/04/11 03:56:07;;;;;;;0.43;0.20;;;15.60;55.00;;;;;;2310099;55;21550;-69
2023/04/11 03:58:33;;;;;;;0.68;0.30;;;15.50;55.20;;;;;;2308826;55;21729;-70
2023/04/11 04:01:01;;;;;;;0.22;0.13;;;15.40;55.30;;;;;;2308817;55;20955;-69
2023/04/11 04:03:27;;;;;;;1.67;0.17;;;15.20;55.40;;;;;;2303022;55;21042;-69
2023/04/11 04:05:54;;;;;;;1.50;0.20;;;15.00;55.50;;;;;;2297453;55;20946;-69
2023/04/11 04:08:21;;;;;;;0.28;0.10;;;15.00;55.70;;;;;;2309684;55;20979;-70
2023/04/11 04:10:47;;;;;;;0.70;0.28;;;14.90;55.80;;;;;;2549128;54;20991;-69
2023/04/11 04:13:13;;;;;;;0.70;0.20;;;14.80;56.00;;;;;;2309832;55;20971;-69
2023/04/11 04:15:41;;;;;;;1.10;0.20;;;14.70;56.10;;;;;;2548733;54;20927;-69
2023/04/11 04:18:07;;;;;;;0.70;0.20;;;14.60;56.30;;;;;;2541544;54;21113;-69
2023/04/11 04:20:35;;;;;;;1.17;0.30;;;14.60;56.50;;;;;;2294362;55;21038;-69
2023/04/11 04:23:03;;;;;;;0.20;0.10;;;14.50;56.70;;;;;;2549799;54;20919;-69
2023/04/11 04:25:30;;;;;;;0.57;0.20;;;14.50;56.70;;;;;;2291448;56;21420;-69
2023/04/11 04:27:59;;;;;;;1.55;0.43;;;14.40;56.80;;;;;;2310729;55;20931;-69
2023/04/11 04:30:27;;;;;;;2.22;0.60;;;14.40;57.20;;;;;;2517584;54;21018;-69
2023/04/11 04:32:57;;;;;;;0.32;0.10;;;14.40;57.70;;;;;;2309770;55;24949;-69
2023/04/11 04:35:25;;;;;;;1.50;0.20;;;14.30;58.20;;;;;;2549326;54;20959;-69
2023/04/11 04:37:52;;;;;;;0.17;0.17;;;14.30;58.80;;;;;;2549945;54;20923;-69
2023/04/11 04:40:19;;;;;;;1.00;0.32;;;14.20;59.20;;;;;;2532917;54;21586;-69
2023/04/11 04:42:48;;;;;;;0.93;0.30;;;14.20;59.60;;;;;;2302646;55;20939;-69
2023/04/11 04:45:15;;;;;;;1.45;0.43;;;14.10;60.00;;;;;;2549182;54;20967;-69
2023/04/11 04:47:41;;;;;;;1.65;0.40;;;14.10;60.30;;;;;;2552127;54;20943;-69
2023/04/11 04:50:07;;;;;;;0.65;0.30;;;14.00;60.50;;;;;;2313457;55;21019;-69
2023/04/11 04:52:34;;;;;;;0.50;0.20;;;14.00;60.60;;;;;;2552451;54;20939;-69
2023/04/11 04:55:00;;;;;;;0.52;0.30;;;13.90;60.70;;;;;;2313205;55;20996;-68
2023/04/11 04:57:30;;;;;;;1.50;0.30;;;13.90;60.70;;;;;;2311269;55;20922;-69
2023/04/11 04:59:57;;;;;;;0.43;0.20;;;13.90;60.70;;;;;;2311266;55;21010;-69
2023/04/11 05:02:26;;;;;;;1.25;0.30;;;13.70;60.60;;;;;;2550208;54;21054;-68
2023/04/11 05:04:53;;;;;;;0.80;0.20;;;13.60;60.80;;;;;;2550776;54;20927;-68
2023/04/11 05:07:19;;;;;;;1.37;0.30;;;13.60;61.20;;;;;;2312133;55;21766;-69
2023/04/11 05:09:46;;;;;;;0.93;0.30;;;13.60;61.40;;;;;;2312830;55;20992;-69
2023/04/11 05:12:14;;;;;;;1.25;0.32;;;13.50;61.50;;;;;;2516387;54;20957;-69
2023/04/11 05:14:40;;;;;;;2.15;0.28;;;13.50;61.40;;;;;;2531228;54;21007;-68
2023/04/11 05:17:07;;;;;;;1.30;0.30;;;13.40;61.40;;;;;;2552308;54;20935;-68
2023/04/11 05:19:33;;;;;;;2.17;0.40;;;13.30;61.40;;;;;;2552043;54;20935;-71
2023/04/11 05:22:00;;;;;;;0.95;0.40;;;13.20;62.20;;;;;;2294111;55;20973;-68
2023/04/11 05:24:26;;;;;;;0.93;0.30;;;13.20;61.70;;;;;;2310224;55;21158;-68
2023/04/11 05:26:55;;;;;;;2.70;0.50;;;13.10;62.00;;;;;;2551366;54;21384;-68
2023/04/11 05:29:21;;;;;;;1.42;0.40;;;13.10;62.40;;;;;;2310843;55;20971;-70
2023/04/11 05:31:48;;;;;;;1.15;0.40;;;13.00;62.60;;;;;;2281219;55;1843551;-68
2023/04/11 05:34:16;;;;;;;1.08;0.37;;;13.00;62.90;;;;;;2310569;55;20951;-68
2023/04/11 05:36:46;;;;;;;1.58;0.50;;;13.00;62.90;;;;;;2550074;54;20947;-68
2023/04/11 05:39:12;;;;;;;1.65;0.40;;;12.90;63.00;;;;;;2310916;55;20967;-68
2023/04/11 05:41:39;;;;;;;1.35;0.50;;;12.90;63.30;;;;;;2550148;54;20951;-70
2023/04/11 05:44:05;;;;;;;3.03;1.12;;;12.90;63.50;;;;;;2308990;55;21077;-69
2023/04/11 05:46:34;;;;;;;3.10;0.80;;;12.90;63.60;;;;;;2292700;55;20967;-69
2023/04/11 05:49:01;;;;;;;3.53;0.75;;;12.80;63.70;;;;;;2310430;55;20935;-69
2023/04/11 05:51:27;;;;;;;3.17;1.20;;;12.80;63.80;;;;;;2310544;55;21066;-69
2023/04/11 05:53:54;;;;;;;9.13;4.18;;;12.80;64.00;;;;;;2310780;55;21395;-68
2023/04/11 05:56:21;;;;;;;6.65;3.67;;;12.80;64.20;;;;;;2548957;54;20958;-68
2023/04/11 05:58:51;;;;;;;5.87;2.58;;;12.80;64.30;;;;;;2310264;55;20994;-69
2023/04/11 06:01:18;;;;;;;4.90;1.85;;;12.80;64.50;;;;;;2549565;54;21618;-69
2023/04/11 06:03:44;;;;;;;4.20;1.20;;;12.70;64.60;;;;;;2310922;55;20982;-69
2023/04/11 06:06:13;;;;;;;3.72;1.25;;;12.70;64.80;;;;;;2310598;55;21646;-68
2023/04/11 06:08:39;;;;;;;2.47;0.85;;;12.70;64.80;;;;;;2309709;55;20985;-69
2023/04/11 06:11:05;;;;;;;4.22;1.40;;;12.70;65.00;;;;;;2529744;54;21505;-68
2023/04/11 06:13:31;;;;;;;3.05;1.00;;;12.70;65.00;;;;;;2549074;54;20911;-69
2023/04/11 06:15:58;;;;;;;2.03;0.70;;;12.70;65.20;;;;;;2310566;55;20979;-69
2023/04/11 06:18:24;;;;;;;1.92;0.68;;;12.70;65.40;;;;;;2309565;55;20974;-69
2023/04/11 06:20:53;;;;;;;2.70;0.60;;;12.70;65.50;;;;;;2309580;55;20987;-68
2023/04/11 06:23:21;;;;;;;1.62;0.60;;;12.70;65.70;;;;;;2309252;55;21408;-68
2023/04/11 06:25:47;;;;;;;1.05;0.40;;;12.70;65.80;;;;;;2310522;55;20943;-69
2023/04/11 06:28:14;;;;;;;2.50;0.70;;;12.70;65.90;;;;;;2548446;54;21030;-69
2023/04/11 06:30:41;;;;;;;1.35;0.40;;;12.70;66.10;;;;;;2310366;55;20943;-69
2023/04/11 06:33:08;;;;;;;1.95;0.60;;;12.80;66.20;;;;;;2310562;55;20939;-70
2023/04/11 06:35:35;;;;;;;2.15;0.50;;;12.80;66.30;;;;;;2515742;54;21909;-69
2023/04/11 06:38:01;;;;;;;1.08;0.40;;;12.80;66.40;;;;;;2532409;54;20942;-70
2023/04/11 06:40:28;;;;;;;2.70;0.57;;;12.80;66.50;;;;;;2547718;54;20951;-70
2023/04/11 06:42:56;;;;;;;1.85;0.52;;;12.80;66.60;;;;;;2300063;55;21340;-69
2023/04/11 06:45:23;;;;;;;3.70;0.60;;;12.80;66.60;;;;;;2529801;54;20958;-71
2023/04/11 06:47:51;;;;;;;3.78;1.00;;;12.90;67.50;;;;;;2296015;55;20978;-68
2023/04/11 06:50:17;;;;;;;3.87;1.15;;;12.90;66.90;;;;;;2310202;55;20966;-68
2023/04/11 06:52:44;;;;;;;4.65;1.10;;;12.90;67.00;;;;;;2310830;55;20990;-69
2023/04/11 06:55:14;;;;;;;2.67;1.00;;;13.00;67.10;;;;;;2549023;54;20959;-70
2023/04/11 06:57:41;;;;;;;2.12;0.88;;;13.00;67.20;;;;;;2549010;54;21399;-70
2023/04/11 07:00:10;;;;;;;2.60;0.80;;;13.00;67.10;;;;;;2309977;55;21022;-69
2023/04/11 07:02:40;;;;;;;2.67;0.70;;;13.00;67.10;;;;;;2549853;54;21483;-69
2023/04/11 07:05:08;;;;;;;2.30;0.70;;;13.10;67.10;;;;;;2310790;55;21463;-70
2023/04/11 07:07:34;;;;;;;1.83;0.57;;;13.10;67.10;;;;;;2309199;55;21844;-69
2023/04/11 07:10:00;;;;;;;3.58;0.65;;;13.10;67.10;;;;;;2310222;55;20987;-70
2023/04/11 07:12:26;;;;;;;1.90;0.60;;;13.10;67.00;;;;;;2310168;55;21137;-70
2023/04/11 07:14:54;;;;;;;1.65;0.40;;;13.20;67.20;;;;;;2310452;55;21042;-68
2023/04/11 07:17:20;;;;;;;1.42;0.50;;;13.20;68.00;;;;;;2541106;54;20989;-68
2023/04/11 07:19:47;;;;;;;0.88;0.30;;;13.20;67.30;;;;;;2531838;54;20982;-70
2023/04/11 07:22:14;;;;;;;2.20;0.50;;;13.20;67.40;;;;;;2310238;55;21502;-69
2023/04/11 07:24:42;;;;;;;2.33;0.70;;;13.30;67.60;;;;;;2310620;55;20927;-68
2023/04/11 07:27:08;;;;;;;0.85;0.47;;;13.30;67.70;;;;;;2310674;55;21003;-70
2023/04/11 07:29:35;;;;;;;1.25;0.50;;;13.30;68.40;;;;;;2309879;55;20947;-71
2023/04/11 07:32:03;;;;;;;0.73;0.35;;;13.30;67.70;;;;;;2531481;54;21051;-70
2023/04/11 07:34:29;;;;;;;1.33;0.50;;;13.40;67.90;;;;;;2539852;54;20947;-69
2023/04/11 07:36:59;;;;;;;1.95;0.60;;;13.40;67.90;;;;;;2311244;55;20982;-70
2023/04/11 07:39:26;;;;;;;4.22;0.70;;;13.40;68.00;;;;;;2521968;54;21012;-69
2023/04/11 07:41:53;;;;;;;3.75;0.80;;;13.50;68.10;;;;;;2310108;55;20911;-70
2023/04/11 07:44:20;;;;;;;1.90;0.70;;;13.50;68.20;;;;;;2310427;55;20959;-69
2023/04/11 07:46:46;;;;;;;2.35;0.80;;;13.50;68.20;;;;;;2310397;55;20994;-69
2023/04/11 07:49:13;;;;;;;2.25;0.62;;;13.60;68.30;;;;;;2528283;54;20926;-69
2023/04/11 07:51:40;;;;;;;2.22;0.95;;;13.60;68.40;;;;;;2305587;55;21527;-70
2023/04/11 07:54:08;;;;;;;1.98;0.60;;;13.70;68.40;;;;;;2549896;54;21010;-71
2023/04/11 07:56:35;;;;;;;2.42;0.50;;;13.70;68.30;;;;;;2549263;54;21058;-70
2023/04/11 07:59:01;;;;;;;2.90;0.55;;;13.70;68.30;;;;;;2310363;55;20926;-70
2023/04/11 08:01:27;;;;;;;1.90;0.60;;;13.70;68.30;;;;;;2547382;54;20962;-70
2023/04/11 08:03:54;;;;;;;1.58;0.60;;;13.80;68.50;;;;;;2515309;54;21022;-71
2023/04/11 08:06:21;;;;;;;2.12;0.62;;;13.80;68.30;;;;;;2297097;55;21003;-70
2023/04/11 08:08:47;;;;;;;2.62;0.73;;;13.90;68.40;;;;;;2289737;55;20971;-68
2023/04/11 08:11:14;;;;;;;1.45;0.50;;;13.90;68.40;;;;;;2308641;55;20919;-70
2023/04/11 08:13:41;;;;;;;3.10;0.82;;;14.00;68.50;;;;;;2530247;54;20954;-69
2023/04/11 08:16:09;;;;;;;2.53;0.77;;;14.10;68.70;;;;;;2298847;55;21515;-72
2023/04/11 08:18:36;;;;;;;2.45;0.77;;;14.10;68.90;;;;;;2310199;55;21824;-70
2023/04/11 08:21:03;;;;;;;2.55;0.80;;;14.20;69.10;;;;;;2309923;55;20962;-70
2023/04/11 08:23:29;;;;;;;3.90;0.85;;;14.20;69.10;;;;;;2310461;55;21082;-72
2023/04/11 08:25:56;;;;;;;2.72;0.82;;;14.30;69.00;;;;;;2549247;54;20939;-68
2023/04/11 08:28:22;;;;;;;2.55;0.80;;;14.30;68.80;;;;;;2548997;54;20942;-71
2023/04/11 08:30:54;;;;;;;2.40;0.80;;;14.50;68.70;;;;;;2549975;54;21531;-70
2023/04/11 08:33:22;;;;;;;3.12;0.80;;;14.50;68.60;;;;;;2549704;54;20947;-69
2023/04/11 08:35:49;;;;;;;2.42;0.80;;;14.60;68.50;;;;;;2311409;55;20951;-70
2023/04/11 08:38:16;;;;;;;2.72;0.73;;;14.60;68.40;;;;;;2549463;54;20964;-69
2023/04/11 08:40:42;;;;;;;3.17;0.73;;;14.70;68.20;;;;;;2309478;55;20982;-71
2023/04/11 08:43:17;;;;;;;4.35;1.20;;;14.70;68.00;;;;;;2294425;55;20919;-70
2023/04/11 08:45:47;;;;;;;3.67;0.80;;;14.80;67.80;;;;;;2310844;55;21022;-70
2023/04/11 08:48:13;;;;;;;3.78;0.82;;;14.80;67.60;;;;;;2522444;54;21341;-71
2023/04/11 08:50:40;;;;;;;2.67;0.88;;;14.80;67.50;;;;;;2310604;55;20987;-70
2023/04/11 08:53:07;;;;;;;5.45;0.90;;;14.90;67.50;;;;;;2549502;54;21435;-71
2023/04/11 08:55:34;;;;;;;3.85;0.73;;;14.90;67.40;;;;;;2549047;54;21999;-71
2023/04/11 08:58:01;;;;;;;4.93;0.80;;;14.90;67.50;;;;;;2310051;55;21063;-70
2023/04/11 09:00:31;;;;;;;5.22;1.20;;;15.00;67.70;;;;;;2309944;55;20939;-71
2023/04/11 09:03:04;;;;;;;2.55;0.82;;;15.00;67.80;;;;;;2295707;55;21009;-70
2023/04/11 09:05:49;;;;;;;3.65;0.73;;;15.10;67.90;;;;;;2308053;55;21016;-72
2023/04/11 09:08:17;;;;;;;4.55;0.95;;;15.10;67.10;;;;;;2549625;54;20918;-70
2023/04/11 09:10:46;;;;;;;4.97;1.10;;;15.20;68.10;;;;;;2310645;55;20927;-70
2023/04/11 09:13:26;;;;;;;3.33;0.80;;;15.30;67.90;;;;;;2291736;55;21073;-71
2023/04/11 09:17:00;;;;;;;4.05;0.90;;;15.40;66.80;;;;;;2550363;54;20986;-70
2023/04/11 09:19:28;;;;;;;3.62;1.25;;;15.50;65.80;;;;;;2306517;55;21022;-74
2023/04/11 09:22:00;;;;;;;4.10;0.82;;;15.50;67.30;;;;;;2532141;54;20967;-70
2023/04/11 09:24:27;;;;;;;4.40;0.98;;;15.60;66.70;;;;;;2549508;54;20938;-69
2023/04/11 09:27:06;;;;;;;3.17;0.85;;;15.60;66.80;;;;;;2550502;54;21852;-71
2023/04/11 09:29:50;;;;;;;5.57;0.85;;;15.60;65.60;;;;;;2311565;55;20959;-69
2023/04/11 09:32:32;;;;;;;5.93;0.85;;;15.70;65.30;;;;;;2549331;54;21022;-72
2023/04/11 09:35:21;;;;;;;2.47;0.62;;;15.70;65.30;;;;;;2549812;54;20919;-72
2023/04/11 09:38:02;;;;;;;3.47;1.00;;;15.70;65.90;;;;;;2310371;55;20935;-71
2023/04/11 09:40:31;;;;;;;3.83;1.00;;;15.80;66.20;;;;;;2549619;54;20927;-70
2023/04/11 09:43:02;;;;;;;4.10;1.05;;;15.80;66.50;;;;;;2550640;54;21030;-73
2023/04/11 09:45:29;;;;;;;4.78;0.90;;;15.80;66.40;;;;;;2310289;55;21792;-69
2023/04/11 09:47:57;;;;;;;1.92;0.93;;;15.80;66.60;;;;;;2528700;54;21081;-71
2023/04/11 09:50:24;;;;;;;3.40;0.82;;;15.80;66.70;;;;;;2287761;55;21033;-69
2023/04/11 09:52:54;;;;;;;3.10;0.80;;;15.90;66.60;;;;;;2310813;55;21352;-72
2023/04/11 09:55:24;;;;;;;3.35;0.90;;;15.90;66.50;;;;;;2549472;54;20923;-70
2023/04/11 09:57:51;;;;;;;4.90;0.80;;;15.90;66.40;;;;;;2310926;55;20974;-71
2023/04/11 10:00:22;;;;;;;3.70;0.80;;;16.00;66.30;;;;;;2309620;55;20915;-70
2023/04/11 10:02:54;;;;;;;2.90;0.90;;;16.00;66.30;;;;;;2311279;55;20910;-72
2023/04/11 10:05:26;;;;;;;4.47;1.00;;;16.00;66.20;;;;;;2522759;54;21888;-73
2023/04/11 10:08:07;;;;;;;4.43;1.17;;;16.10;66.20;;;;;;2311613;55;21797;-71
2023/04/11 10:10:33;;;;;;;2.58;0.82;;;16.10;65.30;;;;;;2549475;54;20966;-71
2023/04/11 10:13:02;;;;;;;5.70;1.00;;;16.10;66.40;;;;;;2540992;54;20935;-71
2023/04/11 10:15:29;;;;;;;2.85;0.80;;;16.20;66.40;;;;;;2549444;54;20978;-71
2023/04/11 10:18:08;;;;;;;4.43;0.85;;;16.20;66.30;;;;;;2550117;54;21006;-70
2023/04/11 10:20:55;;;;;;;3.97;0.82;;;16.30;64.80;;;;;;2525561;54;21053;-72
2023/04/11 10:23:22;;;;;;;2.83;0.90;;;16.30;64.50;;;;;;2307492;55;20989;-72
2023/04/11 10:25:58;;;;;;;3.67;0.90;;;16.30;65.90;;;;;;2529635;54;20943;-71
2023/04/11 10:28:38;;;;;;;4.10;0.85;;;16.40;65.20;;;;;;2548557;54;21033;-71
2023/04/11 10:31:16;;;;;;;3.33;0.80;;;16.40;64.50;;;;;;2549229;54;20926;-70
2023/04/11 10:34:10;;;;;;;2.45;0.88;;;16.40;65.20;;;;;;2310847;55;20946;-70
2023/04/11 10:38:28;;;;;;;3.08;1.10;;;16.40;64.00;;;;;;2549648;54;21579;-70
2023/04/11 10:41:30;;;;;;;3.03;0.80;;;16.50;62.90;;;;;;2296229;55;21125;-74
2023/04/11 10:44:21;;;;;;;2.95;0.90;;;16.50;64.60;;;;;;2311720;55;21685;-73
2023/04/11 10:46:52;;;;;;;2.22;0.90;;;16.60;65.40;;;;;;2550018;54;20971;-73
2023/04/11 10:49:35;;;;;;;3.17;0.93;;;16.60;66.60;;;;;;2309969;55;20943;-71
2023/04/11 10:53:05;;;;;;;2.42;0.80;;;16.70;64.90;;;;;;2549746;54;20959;-70
2023/04/11 10:55:50;;;;;;;4.03;1.00;;;16.70;63.30;;;;;;2311223;55;20979;-70
2023/04/11 10:58:20;;;;;;;2.67;0.80;;;16.80;64.60;;;;;;2310537;55;20930;-73
2023/04/11 11:01:32;;;;;;;4.18;0.90;;;16.80;65.40;;;;;;2544455;54;20986;-73
2023/04/11 11:04:03;;;;;;;3.60;0.80;;;16.90;63.50;;;;;;2539016;54;21529;-71
2023/04/11 11:06:33;;;;;;;2.42;0.80;;;17.00;66.00;;;;;;2309811;55;22796;-71
2023/04/11 11:09:24;;;;;;;2.05;0.62;;;17.00;65.50;;;;;;2295182;55;21112;-71
2023/04/11 11:12:12;;;;;;;4.00;0.80;;;17.00;64.80;;;;;;2549360;54;21887;-72
2023/04/11 11:14:43;;;;;;;3.47;1.00;;;17.10;64.00;;;;;;2548974;54;21006;-69
2023/04/11 11:17:10;;;;;;;4.40;0.88;;;17.10;65.30;;;;;;2309708;55;20938;-73
2023/04/11 11:19:37;;;;;;;3.37;0.90;;;17.20;65.60;;;;;;2549068;54;21051;-74
2023/04/11 11:22:05;;;;;;;2.37;0.73;;;17.20;65.60;;;;;;2310283;55;20926;-71
2023/04/11 11:24:31;;;;;;;3.40;0.77;;;17.30;66.00;;;;;;2547538;54;21030;-72
2023/04/11 11:26:58;;;;;;;4.78;1.25;;;17.30;66.10;;;;;;2524719;54;20911;-72
2023/04/11 11:29:32;;;;;;;2.92;0.80;;;17.50;66.30;;;;;;2521677;54;20986;-73
2023/04/11 11:32:02;;;;;;;3.97;1.12;;;17.40;65.10;;;;;;2309854;55;21058;-70
2023/04/11 11:34:30;;;;;;;2.72;0.80;;;17.50;66.20;;;;;;2549332;54;21010;-72
2023/04/11 11:36:56;;;;;;;2.95;0.70;;;17.60;65.90;;;;;;2310504;55;20947;-71
2023/04/11 11:39:23;;;;;;;3.28;0.77;;;17.70;66.10;;;;;;2548699;54;20953;-71
2023/04/11 11:41:49;;;;;;;2.17;0.60;;;17.70;66.00;;;;;;2309325;55;20978;-73
2023/04/11 11:44:49;;;;;;;2.25;0.68;;;17.80;66.00;;;;;;2309265;55;20935;-73
2023/04/11 11:47:15;;;;;;;5.62;0.80;;;17.90;63.60;;;;;;2309152;55;21019;-72
2023/04/11 11:50:05;;;;;;;4.82;0.90;;;17.90;65.90;;;;;;2310287;55;22224;-71
2023/04/11 11:52:42;;;;;;;3.92;0.95;;;18.00;65.20;;;;;;2548601;54;21014;-72
2023/04/11 11:55:29;;;;;;;3.17;0.90;;;18.00;64.30;;;;;;2309409;55;21006;-73
2023/04/11 11:57:58;;;;;;;2.85;0.75;;;18.10;63.60;;;;;;2548478;54;21022;-73
2023/04/11 12:00:25;;;;;;;4.10;1.10;;;18.10;65.20;;;;;;2547984;54;21090;-75
2023/04/11 12:02:53;;;;;;;2.42;0.80;;;18.20;65.70;;;;;;2548661;54;21375;-71
2023/04/11 12:05:22;;;;;;;4.22;0.90;;;18.20;64.90;;;;;;2309831;55;20947;-70
2023/04/11 12:07:52;;;;;;;2.60;0.70;;;18.30;65.20;;;;;;2549533;54;20938;-72
2023/04/11 12:10:20;;;;;;;4.82;1.10;;;18.30;64.60;;;;;;2547847;54;21968;-74
2023/04/11 12:12:48;;;;;;;2.70;0.90;;;18.40;65.20;;;;;;2310366;55;21062;-71
2023/04/11 12:15:19;;;;;;;3.62;0.80;;;18.40;64.80;;;;;;2304127;55;21002;-73
2023/04/11 12:17:52;;;;;;;3.33;0.90;;;18.50;64.60;;;;;;2290068;55;20986;-75
2023/04/11 12:20:25;;;;;;;3.58;0.80;;;18.50;64.00;;;;;;2548993;54;20935;-72
2023/04/11 12:22:52;;;;;;;3.03;0.88;;;18.50;63.60;;;;;;2549230;54;20947;-74
2023/04/11 12:25:20;;;;;;;3.47;1.00;;;18.50;64.30;;;;;;2548444;54;21900;-72
2023/04/11 12:27:47;;;;;;;3.80;1.00;;;18.50;64.30;;;;;;2310472;55;21002;-72
2023/04/11 12:30:14;;;;;;;2.95;0.98;;;18.60;64.20;;;;;;2548344;54;21389;-73
2023/04/11 12:32:40;;;;;;;2.92;0.77;;;18.60;64.00;;;;;;2538470;54;21029;-71
2023/04/11 12:35:09;;;;;;;4.30;0.90;;;18.60;63.70;;;;;;2290444;55;21413;-72
2023/04/11 12:37:38;;;;;;;3.10;1.00;;;18.60;63.80;;;;;;2546246;54;20971;-71
2023/04/11 12:40:09;;;;;;;3.40;0.85;;;18.60;63.80;;;;;;2310481;55;21002;-71
2023/04/11 12:42:38;;;;;;;4.15;0.80;;;18.60;64.00;;;;;;2549276;54;21936;-71
2023/04/11 12:45:11;;;;;;;;;;;18.60;64.20;;;;;;2302705;55;20918;-71
2023/04/11 12:47:39;;;;;;;1.98;0.60;;;18.70;63.00;;;;;;2302449;55;20718;-73
2023/04/11 12:50:07;;;;;;;3.70;0.80;;;18.70;64.60;;;;;;2549485;54;21070;-73
2023/04/11 12:52:33;;;;;;;2.80;0.98;;;18.70;64.20;;;;;;2309642;55;20953;-73
2023/04/11 12:55:00;;;;;;;3.83;0.95;;;18.80;64.30;;;;;;2549611;54;20959;-73
2023/04/11 12:57:27;;;;;;;4.90;1.30;;;18.80;64.70;;;;;;2548135;54;21955;-72
2023/04/11 12:59:53;;;;;;;8.55;1.10;;;18.80;64.00;;;;;;2300517;55;21086;-73